Terminal Aerodrome Forecast
Issued by NWS

Home | Current Version | Previous Version | Text Only | Print | Product List | Glossary On
Versions: 1 2 3 4 5 6 7 8 9 10 11 12 13 14 15 16 17 18 19 20 21 22 23 24 25 26
000
FTUS45 KCYS 030538
TAFAIA
TAF
KAIA 030538Z 0306/0406 20009KT P6SM VCSH SCT007 BKN010
     FM030900 01020G27KT 1SM -SN SCT004 OVC010
     FM031600 36015G22KT P6SM OVC012=

USA.gov is the U.S. government's official web portal to all federal, state and local government web resources and services.